Mississippi Star — 9HA2441 — position and weather

sailwx.info

Track history (hours):
 
Tides and Currents Weather Stations Pressure Air Temp Water Temp Dewpoint Dewpoint Depression Visibility Wind Speed Wind Dir Waves Ship Positions

Mississippi Star

Last reported at 2015-Jul-05 12:31 UTC. Time now 2015-Jul-05 12:53 UTC.
Position N 38°44' E 000°30'.

Length 128 m; draft 5.5 m.

Type: Ship. MMSI: 248621000.

Date/timePositionNaut miles runAvg speedWind from/ knotsBaromVisibWave heightAir tempDewpointWater temp
2015-Jul-05 12:31N 38°44' E 000°30'2511.7
2015-Jul-05 10:26N 38°23' E 000°12'1112.2
2015-Jul-05 09:33N 38°15' E 000°04'1212.2
2015-Jul-05 08:33N 38°04' W 000°04'1212.1
2015-Jul-05 07:33N 37°54' W 000°13'1212.0
2015-Jul-05 06:33N 37°44' W 000°21'1211.9
2015-Jul-05 05:33N 37°35' W 000°30'1111.4
2015-Jul-05 04:33N 37°27' W 000°40'1111.3
2015-Jul-05 03:33N 37°19' W 000°50'1211.6
2015-Jul-05 02:33N 37°11' W 001°01'1211.6
2015-Jul-05 01:33N 37°03' W 001°12'1211.7
2015-Jul-05 00:33N 36°56' W 001°23'1211.9
2015-Jul-04 23:33N 36°48' W 001°34'1212.1
2015-Jul-04 22:33N 36°40' W 001°45'1212.4
2015-Jul-04 21:33N 36°31' W 001°57'2412.0
2015-Jul-04 19:33N 36°21' W 002°23'13613.3
2015-Jul-04 09:20N 36°01' W 005°10'1013.1
2015-Jul-04 08:34N 36°00' W 005°22'6 5.5
2015-Jul-04 07:30N 36°06' W 005°25'0 0.1
2015-Jul-04 06:33N 36°06' W 005°25'0 0.0
2015-Jul-04 05:33N 36°06' W 005°25'0 0.1
2015-Jul-04 04:33N 36°06' W 005°25'0 0.0
2015-Jul-04 03:33N 36°06' W 005°25'5 2.7
2015-Jul-04 01:33N 36°01' W 005°21'9 9.5
2015-Jul-04 00:33N 35°57' W 005°31'9511.8
2015-Jul-03 16:31N 36°11' W 007°26'2 1.1
2015-Jul-03 14:28N 36°12' W 007°29'16 1.8
2015-Jul-03 05:33N 36°13' W 007°49'1211.8
2015-Jul-03 04:32N 36°17' W 008°03'1312.1
2015-Jul-03 03:25N 36°21' W 008°19'2512.2
2015-Jul-03 01:24N 36°27' W 008°49'1012.4
2015-Jul-03 00:33N 36°30' W 009°01'1312.5
2015-Jul-02 23:33N 36°33' W 009°16'1312.7
2015-Jul-02 22:33N 36°42' W 009°28'1313.1
2015-Jul-02 21:33N 36°53' W 009°36'1313.4
2015-Jul-02 20:34N 37°06' W 009°40'1413.4
2015-Jul-02 19:33N 37°19' W 009°44'1313.1
2015-Jul-02 18:33N 37°32' W 009°48'1313.3
2015-Jul-02 17:33N 37°45' W 009°51'1413.5
2015-Jul-02 16:33N 37°59' W 009°54'1313.3
2015-Jul-02 15:33N 38°11' W 009°58'1313.0
2015-Jul-02 14:33N 38°24' W 010°01'1313.1
2015-Jul-02 13:33N 38°37' W 010°05'1313.1
2015-Jul-02 12:33N 38°50' W 010°07'1312.7
2015-Jul-02 11:33N 39°03' W 010°07'1313.1
2015-Jul-02 10:33N 39°16' W 010°07'48512.3
2015-Jun-30 19:09N 46°54' W 006°27'1213.4
2015-Jun-30 18:14N 47°04' W 006°16'2213.0
2015-Jun-30 16:32N 47°22' W 005°57'5512.5
2015-Jun-30 12:09N 48°06' W 005°09'711.8
2015-Jun-30 11:33N 48°11' W 005°01'1212.2
2015-Jun-30 10:33N 48°17' W 004°45'4 3.7
2015-Jun-30 09:32N 48°17' W 004°39'0 0.0
2015-Jun-30 08:32N 48°17' W 004°40'2 2.0
2015-Jun-30 07:33N 48°19' W 004°38'5 5.0
2015-Jun-30 06:31N 48°22' W 004°31'0 0.0
2015-Jun-30 05:31N 48°22' W 004°31'0 0.0
2015-Jun-30 04:31N 48°22' W 004°31'0 0.0
2015-Jun-30 03:31N 48°22' W 004°31'0 0.0
2015-Jun-30 02:31N 48°22' W 004°31'0 0.0
2015-Jun-30 01:31N 48°22' W 004°31'0 0.0
2015-Jun-30 00:31N 48°22' W 004°31'0 0.0
2015-Jun-29 23:31N 48°22' W 004°31'0 0.0
2015-Jun-29 22:31N 48°22' W 004°31'0 0.0
2015-Jun-29 21:31N 48°22' W 004°31'0 0.0
2015-Jun-29 20:31N 48°22' W 004°31'0 0.0
2015-Jun-29 19:28N 48°22' W 004°31'0 0.0
2015-Jun-29 18:31N 48°22' W 004°31'0 0.0
2015-Jun-29 17:31N 48°22' W 004°31'0 0.0
2015-Jun-29 16:31N 48°22' W 004°31'0 0.0
2015-Jun-29 15:31N 48°22' W 004°31'0 0.0
2015-Jun-29 14:31N 48°22' W 004°31'0 0.0
2015-Jun-29 13:33N 48°22' W 004°31'0 0.0
2015-Jun-29 12:25N 48°22' W 004°31'0 0.0
2015-Jun-29 11:30N 48°22' W 004°31'0 0.0
2015-Jun-29 10:34N 48°22' W 004°31'0 0.0
2015-Jun-29 09:31N 48°22' W 004°31'0 0.0
2015-Jun-29 08:34N 48°22' W 004°31'0 0.0
2015-Jun-29 07:34N 48°22' W 004°31'0 0.0
2015-Jun-29 06:33N 48°22' W 004°31'1 1.4
2015-Jun-29 05:33N 48°21' W 004°29'0 0.1
2015-Jun-29 04:32N 48°21' W 004°29'0 0.0
2015-Jun-29 03:32N 48°21' W 004°29'0 0.0
2015-Jun-29 02:32N 48°21' W 004°29'0 0.0
2015-Jun-29 01:32N 48°21' W 004°29'0 0.0
2015-Jun-29 00:32N 48°21' W 004°29'0 0.0
2015-Jun-28 23:32N 48°21' W 004°29'0 0.0
2015-Jun-28 22:32N 48°21' W 004°29'0 0.1
2015-Jun-28 21:32N 48°21' W 004°29'0 0.2
2015-Jun-28 20:34N 48°21' W 004°29'10 9.6
2015-Jun-28 19:33N 48°18' W 004°43'1111.1
2015-Jun-28 18:33N 48°15' W 004°59'1311.6
2015-Jun-28 17:28N 48°12' W 005°18'1011.2
2015-Jun-28 16:33N 48°18' W 005°30'130 8.6
2015-Jun-28 01:31N 49°53' W 003°15'1611.2
2015-Jun-28 00:03N 50°00' W 002°52'612.2
2015-Jun-27 23:32N 50°02' W 002°43'1312.8
2015-Jun-27 22:33N 50°05' W 002°24'1313.3
2015-Jun-27 21:33N 50°09' W 002°04'1312.9
2015-Jun-27 20:33N 50°12' W 001°44'1211.9
2015-Jun-27 19:33N 50°15' W 001°26'1110.7
2015-Jun-27 18:33N 50°18' W 001°10'9 9.5
2015-Jun-27 17:33N 50°21' W 000°56'12 8.9
2015-Jun-27 16:15N 50°24' W 000°38'7 9.0
2015-Jun-27 15:31N 50°26' W 000°28'9 9.6
2015-Jun-27 14:33N 50°28' W 000°14'1310.7
2015-Jun-27 13:20N 50°31' E 000°06'911.5
2015-Jun-27 12:33N 50°34' E 000°19'1211.7
2015-Jun-27 11:33N 50°37' E 000°37'1111.4
2015-Jun-27 10:33N 50°44' E 000°52'1110.8
2015-Jun-27 09:32N 50°50' E 001°06'1310.3
2015-Jun-27 08:18N 50°60' E 001°20'7 9.6
2015-Jun-27 07:33N 51°05' E 001°28'10 9.9
2015-Jun-27 06:33N 51°11' E 001°40'1110.7
2015-Jun-27 05:33N 51°19' E 001°50'1212.1
2015-Jun-27 04:33N 51°29' E 002°01'1312.5
2015-Jun-27 03:33N 51°39' E 002°14'9110.8
2015-Jun-26 19:04N 53°01' E 003°19'1912.0
2015-Jun-26 17:30N 53°19' E 003°28'1112.0
2015-Jun-26 16:33N 53°30' E 003°34'1511.3
2015-Jun-26 15:12N 53°44' E 003°43'710.7
2015-Jun-26 14:33N 53°48' E 003°52'1110.6
2015-Jun-26 13:33N 53°55' E 004°07'1110.6
2015-Jun-26 12:32N 54°01' E 004°21'2711.0
2015-Jun-26 10:04N 54°24' E 004°47'  
Track history (hours):
 
Tides and Currents Weather Stations Pressure Air Temp Water Temp Dewpoint Dewpoint Depression Visibility Wind Speed Wind Dir Waves Ship Positions

Mississippi Star

Last reported at 2015-Jul-05 12:31 UTC. Time now 2015-Jul-05 12:53 UTC.
Position N 38°44' E 000°30'.

Length 128 m; draft 5.5 m.

Type: Ship. MMSI: 248621000.

Date/timePositionNaut miles runAvg speedWind from/ knotsBaromVisibWave heightAir tempDewpointWater temp
2015-Jul-05 12:31N 38°44' E 000°30'2511.7
2015-Jul-05 10:26N 38°23' E 000°12'1112.2
2015-Jul-05 09:33N 38°15' E 000°04'1212.2
2015-Jul-05 08:33N 38°04' W 000°04'1212.1
2015-Jul-05 07:33N 37°54' W 000°13'1212.0
2015-Jul-05 06:33N 37°44' W 000°21'1211.9
2015-Jul-05 05:33N 37°35' W 000°30'1111.4
2015-Jul-05 04:33N 37°27' W 000°40'1111.3
2015-Jul-05 03:33N 37°19' W 000°50'1211.6
2015-Jul-05 02:33N 37°11' W 001°01'1211.6
2015-Jul-05 01:33N 37°03' W 001°12'1211.7
2015-Jul-05 00:33N 36°56' W 001°23'1211.9
2015-Jul-04 23:33N 36°48' W 001°34'1212.1
2015-Jul-04 22:33N 36°40' W 001°45'1212.4
2015-Jul-04 21:33N 36°31' W 001°57'2412.0
2015-Jul-04 19:33N 36°21' W 002°23'13613.3
2015-Jul-04 09:20N 36°01' W 005°10'1013.1
2015-Jul-04 08:34N 36°00' W 005°22'6 5.5
2015-Jul-04 07:30N 36°06' W 005°25'0 0.1
2015-Jul-04 06:33N 36°06' W 005°25'0 0.0
2015-Jul-04 05:33N 36°06' W 005°25'0 0.1
2015-Jul-04 04:33N 36°06' W 005°25'0 0.0
2015-Jul-04 03:33N 36°06' W 005°25'5 2.7
2015-Jul-04 01:33N 36°01' W 005°21'9 9.5
2015-Jul-04 00:33N 35°57' W 005°31'9511.8
2015-Jul-03 16:31N 36°11' W 007°26'2 1.1
2015-Jul-03 14:28N 36°12' W 007°29'16 1.8
2015-Jul-03 05:33N 36°13' W 007°49'1211.8
2015-Jul-03 04:32N 36°17' W 008°03'1312.1
2015-Jul-03 03:25N 36°21' W 008°19'2512.2
2015-Jul-03 01:24N 36°27' W 008°49'1012.4
2015-Jul-03 00:33N 36°30' W 009°01'1312.5
2015-Jul-02 23:33N 36°33' W 009°16'1312.7
2015-Jul-02 22:33N 36°42' W 009°28'1313.1
2015-Jul-02 21:33N 36°53' W 009°36'1313.4
2015-Jul-02 20:34N 37°06' W 009°40'1413.4
2015-Jul-02 19:33N 37°19' W 009°44'1313.1
2015-Jul-02 18:33N 37°32' W 009°48'1313.3
2015-Jul-02 17:33N 37°45' W 009°51'1413.5
2015-Jul-02 16:33N 37°59' W 009°54'1313.3
2015-Jul-02 15:33N 38°11' W 009°58'1313.0
2015-Jul-02 14:33N 38°24' W 010°01'1313.1
2015-Jul-02 13:33N 38°37' W 010°05'1313.1
2015-Jul-02 12:33N 38°50' W 010°07'1312.7
2015-Jul-02 11:33N 39°03' W 010°07'1313.1
2015-Jul-02 10:33N 39°16' W 010°07'48512.3
2015-Jun-30 19:09N 46°54' W 006°27'1213.4
2015-Jun-30 18:14N 47°04' W 006°16'2213.0
2015-Jun-30 16:32N 47°22' W 005°57'5512.5
2015-Jun-30 12:09N 48°06' W 005°09'711.8
2015-Jun-30 11:33N 48°11' W 005°01'1212.2
2015-Jun-30 10:33N 48°17' W 004°45'4 3.7
2015-Jun-30 09:32N 48°17' W 004°39'0 0.0
2015-Jun-30 08:32N 48°17' W 004°40'2 2.0
2015-Jun-30 07:33N 48°19' W 004°38'5 5.0
2015-Jun-30 06:31N 48°22' W 004°31'0 0.0
2015-Jun-30 05:31N 48°22' W 004°31'0 0.0
2015-Jun-30 04:31N 48°22' W 004°31'0 0.0
2015-Jun-30 03:31N 48°22' W 004°31'0 0.0
2015-Jun-30 02:31N 48°22' W 004°31'0 0.0
2015-Jun-30 01:31N 48°22' W 004°31'0 0.0
2015-Jun-30 00:31N 48°22' W 004°31'0 0.0
2015-Jun-29 23:31N 48°22' W 004°31'0 0.0
2015-Jun-29 22:31N 48°22' W 004°31'0 0.0
2015-Jun-29 21:31N 48°22' W 004°31'0 0.0
2015-Jun-29 20:31N 48°22' W 004°31'0 0.0
2015-Jun-29 19:28N 48°22' W 004°31'0 0.0
2015-Jun-29 18:31N 48°22' W 004°31'0 0.0
2015-Jun-29 17:31N 48°22' W 004°31'0 0.0
2015-Jun-29 16:31N 48°22' W 004°31'0 0.0
2015-Jun-29 15:31N 48°22' W 004°31'0 0.0
2015-Jun-29 14:31N 48°22' W 004°31'0 0.0
2015-Jun-29 13:33N 48°22' W 004°31'0 0.0
2015-Jun-29 12:25N 48°22' W 004°31'0 0.0
2015-Jun-29 11:30N 48°22' W 004°31'0 0.0
2015-Jun-29 10:34N 48°22' W 004°31'0 0.0
2015-Jun-29 09:31N 48°22' W 004°31'0 0.0
2015-Jun-29 08:34N 48°22' W 004°31'0 0.0
2015-Jun-29 07:34N 48°22' W 004°31'0 0.0
2015-Jun-29 06:33N 48°22' W 004°31'1 1.4
2015-Jun-29 05:33N 48°21' W 004°29'0 0.1
2015-Jun-29 04:32N 48°21' W 004°29'0 0.0
2015-Jun-29 03:32N 48°21' W 004°29'0 0.0
2015-Jun-29 02:32N 48°21' W 004°29'0 0.0
2015-Jun-29 01:32N 48°21' W 004°29'0 0.0
2015-Jun-29 00:32N 48°21' W 004°29'0 0.0
2015-Jun-28 23:32N 48°21' W 004°29'0 0.0
2015-Jun-28 22:32N 48°21' W 004°29'0 0.1
2015-Jun-28 21:32N 48°21' W 004°29'0 0.2
2015-Jun-28 20:34N 48°21' W 004°29'10 9.6
2015-Jun-28 19:33N 48°18' W 004°43'1111.1
2015-Jun-28 18:33N 48°15' W 004°59'1311.6
2015-Jun-28 17:28N 48°12' W 005°18'1011.2
2015-Jun-28 16:33N 48°18' W 005°30'130 8.6
2015-Jun-28 01:31N 49°53' W 003°15'1611.2
2015-Jun-28 00:03N 50°00' W 002°52'612.2
2015-Jun-27 23:32N 50°02' W 002°43'1312.8
2015-Jun-27 22:33N 50°05' W 002°24'1313.3
2015-Jun-27 21:33N 50°09' W 002°04'1312.9
2015-Jun-27 20:33N 50°12' W 001°44'1211.9
2015-Jun-27 19:33N 50°15' W 001°26'1110.7
2015-Jun-27 18:33N 50°18' W 001°10'9 9.5
2015-Jun-27 17:33N 50°21' W 000°56'12 8.9
2015-Jun-27 16:15N 50°24' W 000°38'7 9.0
2015-Jun-27 15:31N 50°26' W 000°28'9 9.6
2015-Jun-27 14:33N 50°28' W 000°14'1310.7
2015-Jun-27 13:20N 50°31' E 000°06'911.5
2015-Jun-27 12:33N 50°34' E 000°19'1211.7
2015-Jun-27 11:33N 50°37' E 000°37'1111.4
2015-Jun-27 10:33N 50°44' E 000°52'1110.8
2015-Jun-27 09:32N 50°50' E 001°06'1310.3
2015-Jun-27 08:18N 50°60' E 001°20'7 9.6
2015-Jun-27 07:33N 51°05' E 001°28'10 9.9
2015-Jun-27 06:33N 51°11' E 001°40'1110.7
2015-Jun-27 05:33N 51°19' E 001°50'1212.1
2015-Jun-27 04:33N 51°29' E 002°01'1312.5
2015-Jun-27 03:33N 51°39' E 002°14'9110.8
2015-Jun-26 19:04N 53°01' E 003°19'1912.0
2015-Jun-26 17:30N 53°19' E 003°28'1112.0
2015-Jun-26 16:33N 53°30' E 003°34'1511.3
2015-Jun-26 15:12N 53°44' E 003°43'710.7
2015-Jun-26 14:33N 53°48' E 003°52'1110.6
2015-Jun-26 13:33N 53°55' E 004°07'1110.6
2015-Jun-26 12:32N 54°01' E 004°21'2711.0
2015-Jun-26 10:04N 54°24' E 004°47'  

Dump ship's entire track history